createdAt,value
2019-04-20T00:02:55.493Z,14.00
2019-04-20T00:08:03.242Z,13.90
2019-04-20T00:13:16.598Z,13.80
2019-04-20T00:18:09.886Z,13.90
2019-04-20T00:23:22.645Z,13.80
2019-04-20T00:28:39.874Z,13.70
2019-04-20T00:33:42.259Z,13.70
2019-04-20T00:38:40.851Z,13.60
2019-04-20T00:43:41.779Z,13.50
2019-04-20T00:48:53.636Z,13.40
2019-04-20T00:53:53.830Z,13.30
2019-04-20T00:59:11.999Z,13.20
2019-04-20T01:04:21.954Z,13.20
2019-04-20T01:09:22.280Z,13.20
2019-04-20T01:14:30.909Z,13.20
2019-04-20T01:19:31.214Z,13.20
2019-04-20T01:24:37.158Z,13.20
2019-04-20T01:29:46.754Z,13.00
2019-04-20T01:34:57.637Z,12.90
2019-04-20T01:39:55.216Z,12.80
2019-04-20T01:44:57.377Z,12.70
2019-04-20T01:50:08.460Z,12.60
2019-04-20T02:01:13.674Z,12.70
2019-04-20T02:06:18.093Z,12.50
2019-04-20T02:11:25.958Z,12.50
2019-04-20T02:16:32.754Z,12.40
2019-04-20T02:21:47.768Z,12.30
2019-04-20T02:26:34.848Z,12.30
2019-04-20T02:32:19.728Z,12.10
2019-04-20T02:37:26.355Z,12.10
2019-04-20T02:47:47.332Z,12.20
2019-04-20T02:52:48.621Z,12.10
2019-04-20T02:57:51.109Z,12.00
2019-04-20T03:02:33.496Z,11.90
2019-04-20T03:07:33.938Z,11.90
2019-04-20T03:12:52.239Z,11.90
2019-04-20T03:17:51.305Z,11.80
2019-04-20T03:23:18.808Z,11.70
2019-04-20T03:28:07.028Z,11.60
2019-04-20T03:33:25.684Z,11.60
2019-04-20T03:38:14.489Z,11.50
2019-04-20T03:42:59.133Z,11.40
2019-04-20T03:48:12.341Z,11.40
2019-04-20T03:53:29.328Z,11.30
2019-04-20T03:58:33.457Z,11.30
2019-04-20T04:03:53.765Z,11.20
2019-04-20T04:08:39.754Z,11.30
2019-04-20T04:13:39.722Z,11.30
2019-04-20T04:18:47.356Z,11.30
2019-04-20T04:24:02.239Z,11.30
2019-04-20T04:29:22.607Z,11.30
2019-04-20T04:34:17.404Z,11.20
2019-04-20T04:39:29.403Z,11.20
2019-04-20T04:44:26.574Z,11.10
2019-04-20T04:49:25.756Z,11.00
2019-04-20T04:54:33.839Z,11.00
2019-04-20T04:59:27.574Z,11.10
2019-04-20T05:05:10.619Z,11.10
2019-04-20T05:09:55.196Z,11.00
2019-04-20T05:15:07.599Z,11.00
2019-04-20T05:20:23.002Z,11.00
2019-04-20T05:25:31.116Z,11.10
2019-04-20T05:30:22.819Z,11.00
2019-04-20T05:35:44.147Z,11.10
2019-04-20T05:40:54.233Z,11.10
2019-04-20T05:45:49.907Z,11.00
2019-04-20T05:50:56.072Z,11.20
2019-04-20T05:56:07.281Z,11.20
2019-04-20T06:01:12.259Z,11.40
2019-04-20T06:06:22.125Z,11.40
2019-04-20T06:11:30.344Z,11.50
2019-04-20T06:16:31.026Z,11.50
2019-04-20T06:21:44.266Z,11.70
2019-04-20T06:31:55.463Z,11.80
2019-04-20T06:47:09.321Z,12.60
2019-04-20T06:52:20.249Z,12.80
2019-04-20T06:57:18.472Z,13.20
2019-04-20T07:02:29.936Z,13.40
2019-04-20T07:07:30.437Z,13.70
2019-04-20T07:12:32.760Z,14.00
2019-04-20T07:23:02.212Z,14.70
2019-04-20T07:28:09.740Z,15.10
2019-04-20T07:33:12.657Z,15.50
2019-04-20T07:38:25.571Z,15.80
2019-04-20T07:43:16.466Z,16.10
2019-04-20T07:48:21.163Z,16.40
2019-04-20T07:53:26.063Z,17.00
2019-04-20T07:58:27.359Z,17.40
2019-04-20T08:03:44.213Z,17.70
2019-04-20T08:08:44.010Z,17.90
2019-04-20T08:13:51.279Z,18.10
2019-04-20T08:18:55.498Z,18.40
2019-04-20T08:24:02.634Z,18.60
2019-04-20T08:29:08.962Z,19.10
2019-04-20T08:34:31.440Z,19.40
2019-04-20T08:39:48.175Z,20.20
2019-04-20T08:44:53.710Z,20.50
2019-04-20T08:50:19.347Z,20.90
2019-04-20T08:55:14.590Z,21.10
2019-04-20T09:00:03.602Z,21.50
2019-04-20T09:05:28.137Z,21.80
2019-04-20T09:10:39.184Z,22.10
2019-04-20T09:15:21.666Z,22.30
2019-04-20T09:20:36.568Z,22.90
2019-04-20T09:30:51.971Z,23.10
2019-04-20T09:36:02.365Z,23.40
2019-04-20T09:41:09.110Z,23.80
2019-04-20T09:46:02.068Z,24.20
2019-04-20T09:51:24.799Z,23.80
2019-04-20T09:56:25.601Z,24.10
2019-04-20T10:01:27.263Z,24.00
2019-04-20T10:06:24.930Z,24.30
2019-04-20T10:11:25.486Z,24.60
2019-04-20T10:16:29.478Z,24.80
2019-04-20T10:21:33.954Z,24.60
2019-04-20T10:26:36.723Z,24.90
2019-04-20T10:31:45.466Z,25.00
2019-04-20T10:37:19.791Z,24.90
2019-04-20T10:42:30.136Z,24.70
2019-04-20T10:47:48.998Z,25.00
2019-04-20T10:52:52.444Z,25.00
2019-04-20T10:57:55.948Z,24.90
2019-04-20T11:02:59.668Z,24.90
2019-04-20T11:08:04.342Z,24.80
2019-04-20T11:13:07.842Z,25.20
2019-04-20T11:18:11.598Z,25.10
2019-04-20T11:23:16.084Z,25.00
2019-04-20T11:28:19.973Z,25.20
2019-04-20T11:33:24.542Z,25.10
2019-04-20T11:38:30.109Z,25.10
2019-04-20T11:43:33.719Z,25.40
2019-04-20T11:48:37.412Z,25.50
2019-04-20T11:53:42.716Z,25.60
2019-04-20T11:58:47.082Z,25.80
2019-04-20T12:04:00.337Z,25.70
2019-04-20T12:08:56.997Z,25.60
2019-04-20T12:14:00.705Z,25.60
2019-04-20T12:19:04.766Z,25.60
2019-04-20T12:24:08.186Z,25.80
2019-04-20T12:29:12.003Z,25.80
2019-04-20T12:34:16.146Z,26.00
2019-04-20T12:39:22.221Z,26.10
2019-04-20T12:44:25.806Z,26.10
2019-04-20T12:49:29.630Z,26.20
2019-04-20T12:54:34.438Z,26.40
2019-04-20T12:59:39.181Z,26.60
2019-04-20T13:04:43.557Z,26.50
2019-04-20T13:09:50.731Z,26.50
2019-04-20T13:15:29.038Z,26.60
2019-04-20T13:20:32.468Z,26.70
2019-04-20T13:25:37.042Z,26.80
2019-04-20T13:30:41.885Z,26.70
2019-04-20T13:35:46.073Z,26.70
2019-04-20T13:40:48.985Z,26.80
2019-04-20T13:45:53.120Z,26.90
2019-04-20T13:50:58.166Z,26.70
2019-04-20T13:56:02.278Z,26.90
2019-04-20T14:01:18.868Z,26.70
2019-04-20T14:06:22.767Z,26.60
2019-04-20T14:11:27.346Z,26.90
2019-04-20T14:16:31.488Z,26.90
2019-04-20T14:21:36.287Z,26.80
2019-04-20T14:26:41.251Z,27.10
2019-04-20T14:31:45.956Z,26.90
2019-04-20T14:36:49.008Z,27.00
2019-04-20T14:41:53.885Z,26.90
2019-04-20T14:46:57.986Z,26.80
2019-04-20T14:52:03.163Z,26.80
2019-04-20T14:57:07.745Z,26.90
2019-04-20T15:02:12.813Z,26.80
2019-04-20T15:07:15.578Z,26.50
2019-04-20T15:12:19.275Z,26.40
2019-04-20T15:17:30.356Z,26.30
2019-04-20T15:22:35.984Z,26.40
2019-04-20T15:27:43.517Z,26.40
2019-04-20T15:32:45.069Z,26.40
2019-04-20T15:37:49.165Z,26.40
2019-04-20T15:43:00.960Z,26.20
2019-04-20T15:47:59.374Z,26.10
2019-04-20T15:53:04.069Z,26.10
2019-04-20T15:58:08.397Z,26.10
2019-04-20T16:03:15.054Z,25.90
2019-04-20T16:08:30.288Z,25.80
2019-04-20T16:13:38.510Z,25.90
2019-04-20T16:18:40.972Z,25.80
2019-04-20T16:23:46.455Z,25.70
2019-04-20T16:28:50.231Z,25.60
2019-04-20T16:33:56.874Z,25.50
2019-04-20T16:38:59.493Z,25.50
2019-04-20T16:44:03.266Z,25.30
2019-04-20T16:49:07.295Z,25.30
2019-04-20T18:39:14.615Z,22.50
2019-04-20T18:44:22.333Z,22.40
2019-04-20T18:49:35.033Z,22.20
2019-04-20T18:54:34.046Z,22.10
2019-04-20T18:59:41.784Z,21.80
2019-04-20T19:04:43.852Z,21.60
2019-04-20T19:09:48.493Z,21.40
2019-04-20T19:15:28.127Z,21.40
2019-04-20T19:26:21.133Z,20.80
2019-04-20T19:31:41.369Z,20.50
2019-04-20T19:36:36.295Z,20.40
2019-04-20T19:41:43.997Z,20.30
2019-04-20T19:47:05.274Z,20.10
2019-04-20T19:52:16.047Z,20.00
2019-04-20T22:21:17.451Z,16.50
2019-04-20T22:26:24.076Z,16.30
2019-04-20T22:31:18.192Z,16.20
2019-04-20T22:36:25.946Z,16.30
2019-04-20T22:41:27.883Z,16.30
2019-04-20T22:46:35.584Z,16.40
2019-04-20T22:51:49.572Z,16.30
2019-04-20T22:57:03.516Z,16.30
2019-04-20T23:02:00.566Z,16.20
2019-04-20T23:07:03.130Z,16.10
2019-04-20T23:12:10.145Z,16.10
2019-04-20T23:17:12.437Z,16.20
2019-04-20T23:22:17.507Z,16.30
2019-04-20T23:27:26.385Z,16.30
2019-04-20T23:32:30.063Z,16.10
2019-04-20T23:37:35.622Z,16.20
2019-04-20T23:42:44.521Z,16.10
2019-04-20T23:48:06.722Z,16.00
2019-04-20T23:53:28.469Z,16.00
2019-04-20T23:58:16.417Z,15.80
